Airfield :
LOGIN :

Register | Disclaimer

   EN    FR    IT 

 










Legend :    VFR   Marginal VFR   IFR   Intensive IFR   Very Intensive IFR
Visi :
Ceiling :
>= 8 km
>= 3000ft
5 to 8 km
1000 to 3000 ft
1500m to 5 km
500 to 1000 ft
800 to 1500m
200 to 500 ft
< 800m
< 200 ft
Symbols :   Thunderstorms  Fog  Heavy snow  Heavy precipitations  Wind > 20 kt
SIGMETs :     Misc.  Thunderstorms  Icing  Turbulence  Mountain Waves  Volcanic Ashes







- Airport Elevation : 39 ft


ETNH - Hohn AB

CURRENT METAR :
  • 230820Z 19018KT 9999 FEW040 BKN100 11/03 Q0996 BLU BLU

EXPIRED METARs :
  • 230720Z 19018G28KT 9999 BKN100 11/03 Q0996 BLU BLU
  • 230620Z 19016G27KT 9999 FEW050 BKN120 10/03 Q0996 BLU BLU

TAF TAF ETNH
Valid from the 23 at 06:00 until the 23 at 18:00 UTC


230500Z 2306/2318 19015G25KT 9999 NSW BKN100
TEMPO 2306/2309 19015G30KT 9999 NSW BKN030
BECMG 2309/2311 19015G30KT 9999 NSW BKN030
TEMPO 2311/2318 21015G30KT 4000 -SHRA BKN012 BKN030TCU BY ETGL
No reported NOTAMs for that airfield.



MET'MAP, your aeronautical weather chart ! - Copyright ORBIFLY December 2007 - Disclaimer

ORBIFLY MET'MAP TEAM :

Programming & Development : Alexandra Zaïnal
Concept & Development : Baudouin d'Aumeries
Co-Development & Prog : Marc-Olivier Méhu
Technical & hardware support : Manuel Goepfert

Contact : metmap@orbifly.com




SOURCES & CREDITS :

   NOAA